sensor_id;sensor_type;location;lat;lon;timestamp;P1;durP1;ratioP1;P2;durP2;ratioP2
39176;SDS011;24904;52.208;21.192;2023-09-30T00:04:52;15.10;;;12.10;;
39176;SDS011;24904;52.208;21.192;2023-09-30T00:09:57;24.00;;;13.20;;
39176;SDS011;24904;52.208;21.192;2023-09-30T00:15:03;19.00;;;12.60;;
39176;SDS011;24904;52.208;21.192;2023-09-30T00:20:10;22.70;;;13.80;;
39176;SDS011;24904;52.208;21.192;2023-09-30T00:25:16;19.50;;;13.20;;
39176;SDS011;24904;52.208;21.192;2023-09-30T00:30:23;20.20;;;12.80;;
39176;SDS011;24904;52.208;21.192;2023-09-30T00:43:47;18.70;;;13.10;;
39176;SDS011;24904;52.208;21.192;2023-09-30T00:48:50;20.70;;;12.60;;
39176;SDS011;24904;52.208;21.192;2023-09-30T00:53:56;27.20;;;13.20;;
39176;SDS011;24904;52.208;21.192;2023-09-30T00:59:00;23.80;;;12.50;;
39176;SDS011;24904;52.208;21.192;2023-09-30T01:04:04;19.10;;;12.80;;
39176;SDS011;24904;52.208;21.192;2023-09-30T01:09:08;19.20;;;12.30;;
39176;SDS011;24904;52.208;21.192;2023-09-30T01:14:26;20.40;;;12.40;;
39176;SDS011;24904;52.208;21.192;2023-09-30T01:19:30;17.20;;;12.40;;
39176;SDS011;24904;52.208;21.192;2023-09-30T01:24:38;22.00;;;12.10;;
39176;SDS011;24904;52.208;21.192;2023-09-30T01:29:42;17.20;;;12.40;;
39176;SDS011;24904;52.208;21.192;2023-09-30T01:34:45;20.90;;;12.80;;
39176;SDS011;24904;52.208;21.192;2023-09-30T01:39:48;20.10;;;12.60;;
39176;SDS011;24904;52.208;21.192;2023-09-30T01:44:52;19.80;;;12.80;;
39176;SDS011;24904;52.208;21.192;2023-09-30T01:49:56;22.20;;;13.20;;
39176;SDS011;24904;52.208;21.192;2023-09-30T01:54:59;21.60;;;12.50;;
39176;SDS011;24904;52.208;21.192;2023-09-30T02:00:02;17.30;;;12.00;;
39176;SDS011;24904;52.208;21.192;2023-09-30T02:05:14;17.40;;;12.70;;
39176;SDS011;24904;52.208;21.192;2023-09-30T02:10:17;18.60;;;12.50;;
39176;SDS011;24904;52.208;21.192;2023-09-30T02:15:21;17.40;;;11.90;;
39176;SDS011;24904;52.208;21.192;2023-09-30T02:20:24;19.30;;;12.00;;
39176;SDS011;24904;52.208;21.192;2023-09-30T02:25:31;17.30;;;12.30;;
39176;SDS011;24904;52.208;21.192;2023-09-30T02:30:34;17.60;;;11.40;;
39176;SDS011;24904;52.208;21.192;2023-09-30T02:35:38;18.50;;;12.30;;
39176;SDS011;24904;52.208;21.192;2023-09-30T02:40:47;17.70;;;11.40;;
39176;SDS011;24904;52.208;21.192;2023-09-30T02:45:52;16.20;;;11.70;;
39176;SDS011;24904;52.208;21.192;2023-09-30T02:50:55;16.00;;;11.20;;
39176;SDS011;24904;52.208;21.192;2023-09-30T02:55:58;27.20;;;12.90;;
39176;SDS011;24904;52.208;21.192;2023-09-30T03:01:01;16.80;;;11.70;;
39176;SDS011;24904;52.208;21.192;2023-09-30T03:06:04;16.80;;;12.50;;
39176;SDS011;24904;52.208;21.192;2023-09-30T03:11:07;15.40;;;11.10;;
39176;SDS011;24904;52.208;21.192;2023-09-30T03:16:10;18.70;;;11.50;;
39176;SDS011;24904;52.208;21.192;2023-09-30T03:21:14;16.50;;;11.80;;
39176;SDS011;24904;52.208;21.192;2023-09-30T03:26:17;20.90;;;12.50;;
39176;SDS011;24904;52.208;21.192;2023-09-30T03:31:21;22.00;;;12.10;;
39176;SDS011;24904;52.208;21.192;2023-09-30T03:36:24;21.00;;;12.50;;
39176;SDS011;24904;52.208;21.192;2023-09-30T03:41:27;22.10;;;12.30;;
39176;SDS011;24904;52.208;21.192;2023-09-30T03:46:30;15.30;;;10.90;;
39176;SDS011;24904;52.208;21.192;2023-09-30T03:51:33;18.90;;;12.20;;
39176;SDS011;24904;52.208;21.192;2023-09-30T03:56:38;16.10;;;11.90;;
39176;SDS011;24904;52.208;21.192;2023-09-30T04:01:42;18.00;;;11.40;;
39176;SDS011;24904;52.208;21.192;2023-09-30T04:06:45;18.60;;;12.00;;
39176;SDS011;24904;52.208;21.192;2023-09-30T04:11:48;17.90;;;11.10;;
39176;SDS011;24904;52.208;21.192;2023-09-30T04:16:51;18.40;;;12.00;;
39176;SDS011;24904;52.208;21.192;2023-09-30T04:21:55;19.80;;;11.80;;
39176;SDS011;24904;52.208;21.192;2023-09-30T04:26:58;18.00;;;10.90;;
39176;SDS011;24904;52.208;21.192;2023-09-30T04:32:04;14.80;;;10.70;;
39176;SDS011;24904;52.208;21.192;2023-09-30T04:37:07;20.90;;;12.20;;
39176;SDS011;24904;52.208;21.192;2023-09-30T04:42:10;18.30;;;12.10;;
39176;SDS011;24904;52.208;21.192;2023-09-30T04:47:13;18.50;;;11.40;;
39176;SDS011;24904;52.208;21.192;2023-09-30T04:52:16;19.70;;;12.20;;
39176;SDS011;24904;52.208;21.192;2023-09-30T04:57:19;18.50;;;11.60;;
39176;SDS011;24904;52.208;21.192;2023-09-30T05:02:23;19.10;;;11.10;;
39176;SDS011;24904;52.208;21.192;2023-09-30T05:07:26;18.60;;;10.80;;
39176;SDS011;24904;52.208;21.192;2023-09-30T05:12:30;19.60;;;11.40;;
39176;SDS011;24904;52.208;21.192;2023-09-30T05:17:33;19.20;;;11.80;;
39176;SDS011;24904;52.208;21.192;2023-09-30T05:22:36;14.90;;;11.00;;
39176;SDS011;24904;52.208;21.192;2023-09-30T05:27:40;16.80;;;11.40;;
39176;SDS011;24904;52.208;21.192;2023-09-30T05:32:43;18.10;;;10.90;;
39176;SDS011;24904;52.208;21.192;2023-09-30T05:37:47;16.80;;;11.70;;
39176;SDS011;24904;52.208;21.192;2023-09-30T05:42:53;23.80;;;12.00;;
39176;SDS011;24904;52.208;21.192;2023-09-30T05:47:59;25.10;;;11.90;;
39176;SDS011;24904;52.208;21.192;2023-09-30T05:53:06;22.30;;;12.00;;
39176;SDS011;24904;52.208;21.192;2023-09-30T05:58:12;19.30;;;11.70;;
39176;SDS011;24904;52.208;21.192;2023-09-30T06:03:17;21.30;;;12.00;;
39176;SDS011;24904;52.208;21.192;2023-09-30T06:08:22;21.00;;;11.80;;
39176;SDS011;24904;52.208;21.192;2023-09-30T06:13:25;21.40;;;10.90;;
39176;SDS011;24904;52.208;21.192;2023-09-30T06:18:29;18.30;;;11.70;;
39176;SDS011;24904;52.208;21.192;2023-09-30T06:23:32;18.30;;;11.80;;
39176;SDS011;24904;52.208;21.192;2023-09-30T06:28:35;19.90;;;12.60;;
39176;SDS011;24904;52.208;21.192;2023-09-30T06:33:42;18.20;;;11.80;;
39176;SDS011;24904;52.208;21.192;2023-09-30T06:38:45;18.20;;;12.10;;
39176;SDS011;24904;52.208;21.192;2023-09-30T06:43:49;21.80;;;11.70;;
39176;SDS011;24904;52.208;21.192;2023-09-30T06:48:53;18.90;;;12.20;;
39176;SDS011;24904;52.208;21.192;2023-09-30T06:53:56;18.00;;;11.60;;
39176;SDS011;24904;52.208;21.192;2023-09-30T06:58:59;18.00;;;12.50;;
39176;SDS011;24904;52.208;21.192;2023-09-30T07:04:02;21.60;;;11.70;;
39176;SDS011;24904;52.208;21.192;2023-09-30T07:09:05;21.30;;;13.30;;
39176;SDS011;24904;52.208;21.192;2023-09-30T07:14:11;23.00;;;12.10;;
39176;SDS011;24904;52.208;21.192;2023-09-30T07:19:14;18.50;;;11.70;;
39176;SDS011;24904;52.208;21.192;2023-09-30T07:24:17;18.30;;;12.30;;
39176;SDS011;24904;52.208;21.192;2023-09-30T07:29:20;21.10;;;12.10;;
39176;SDS011;24904;52.208;21.192;2023-09-30T07:34:24;24.40;;;11.30;;
39176;SDS011;24904;52.208;21.192;2023-09-30T07:39:27;21.90;;;13.20;;
39176;SDS011;24904;52.208;21.192;2023-09-30T07:44:30;18.90;;;12.80;;
39176;SDS011;24904;52.208;21.192;2023-09-30T07:49:33;20.10;;;12.40;;
39176;SDS011;24904;52.208;21.192;2023-09-30T07:54:36;16.50;;;12.50;;
39176;SDS011;24904;52.208;21.192;2023-09-30T07:59:39;18.30;;;12.00;;
39176;SDS011;24904;52.208;21.192;2023-09-30T08:05:21;19.40;;;12.50;;
39176;SDS011;24904;52.208;21.192;2023-09-30T08:10:24;22.50;;;13.40;;
39176;SDS011;24904;52.208;21.192;2023-09-30T08:15:27;19.30;;;12.80;;
39176;SDS011;24904;52.208;21.192;2023-09-30T08:20:31;18.50;;;13.00;;
39176;SDS011;24904;52.208;21.192;2023-09-30T08:25:34;16.70;;;13.90;;
39176;SDS011;24904;52.208;21.192;2023-09-30T08:30:37;18.30;;;13.50;;
39176;SDS011;24904;52.208;21.192;2023-09-30T08:35:41;18.80;;;12.80;;
39176;SDS011;24904;52.208;21.192;2023-09-30T08:40:44;17.20;;;13.70;;
39176;SDS011;24904;52.208;21.192;2023-09-30T08:45:48;18.00;;;14.10;;
39176;SDS011;24904;52.208;21.192;2023-09-30T08:50:55;21.20;;;15.40;;
39176;SDS011;24904;52.208;21.192;2023-09-30T08:55:59;24.70;;;14.70;;
39176;SDS011;24904;52.208;21.192;2023-09-30T09:01:05;19.40;;;13.70;;
39176;SDS011;24904;52.208;21.192;2023-09-30T09:06:11;19.10;;;14.70;;
39176;SDS011;24904;52.208;21.192;2023-09-30T09:11:14;18.80;;;14.90;;
39176;SDS011;24904;52.208;21.192;2023-09-30T09:16:17;20.50;;;16.10;;
39176;SDS011;24904;52.208;21.192;2023-09-30T09:21:20;19.50;;;15.60;;
39176;SDS011;24904;52.208;21.192;2023-09-30T09:26:27;20.80;;;15.40;;
39176;SDS011;24904;52.208;21.192;2023-09-30T09:31:33;23.20;;;17.10;;
39176;SDS011;24904;52.208;21.192;2023-09-30T09:36:40;21.40;;;17.30;;
39176;SDS011;24904;52.208;21.192;2023-09-30T09:41:49;28.40;;;19.30;;
39176;SDS011;24904;52.208;21.192;2023-09-30T09:46:53;24.80;;;19.70;;
39176;SDS011;24904;52.208;21.192;2023-09-30T09:51:56;29.70;;;20.40;;
39176;SDS011;24904;52.208;21.192;2023-09-30T09:57:00;31.70;;;20.50;;
39176;SDS011;24904;52.208;21.192;2023-09-30T10:02:09;30.60;;;21.00;;
39176;SDS011;24904;52.208;21.192;2023-09-30T10:07:16;30.70;;;20.10;;
39176;SDS011;24904;52.208;21.192;2023-09-30T10:12:23;27.50;;;19.30;;
39176;SDS011;24904;52.208;21.192;2023-09-30T10:23:18;23.50;;;19.80;;
39176;SDS011;24904;52.208;21.192;2023-09-30T10:28:36;23.10;;;18.90;;
39176;SDS011;24904;52.208;21.192;2023-09-30T10:39:19;22.80;;;18.00;;
39176;SDS011;24904;52.208;21.192;2023-09-30T10:44:55;16.60;;;13.50;;
39176;SDS011;24904;52.208;21.192;2023-09-30T10:49:58;21.60;;;12.40;;
39176;SDS011;24904;52.208;21.192;2023-09-30T10:55:03;14.60;;;11.30;;
39176;SDS011;24904;52.208;21.192;2023-09-30T11:00:08;16.10;;;9.70;;
39176;SDS011;24904;52.208;21.192;2023-09-30T11:05:13;10.40;;;7.60;;
39176;SDS011;24904;52.208;21.192;2023-09-30T11:10:16;7.90;;;6.40;;
39176;SDS011;24904;52.208;21.192;2023-09-30T11:15:20;10.60;;;6.00;;
39176;SDS011;24904;52.208;21.192;2023-09-30T11:20:23;7.70;;;4.50;;
39176;SDS011;24904;52.208;21.192;2023-09-30T11:25:26;7.40;;;4.20;;
39176;SDS011;24904;52.208;21.192;2023-09-30T11:30:29;8.20;;;3.00;;
39176;SDS011;24904;52.208;21.192;2023-09-30T11:35:32;6.80;;;3.10;;
39176;SDS011;24904;52.208;21.192;2023-09-30T11:40:35;10.70;;;3.90;;
39176;SDS011;24904;52.208;21.192;2023-09-30T11:45:38;7.60;;;3.10;;
39176;SDS011;24904;52.208;21.192;2023-09-30T11:50:48;10.50;;;3.80;;
39176;SDS011;24904;52.208;21.192;2023-09-30T11:55:51;5.20;;;2.80;;
39176;SDS011;24904;52.208;21.192;2023-09-30T12:00:58;9.90;;;3.30;;
39176;SDS011;24904;52.208;21.192;2023-09-30T12:06:01;9.80;;;4.20;;
39176;SDS011;24904;52.208;21.192;2023-09-30T12:13:57;10.30;;;4.10;;
39176;SDS011;24904;52.208;21.192;2023-09-30T12:19:02;9.50;;;3.40;;
39176;SDS011;24904;52.208;21.192;2023-09-30T12:24:08;8.20;;;3.90;;
39176;SDS011;24904;52.208;21.192;2023-09-30T12:29:18;6.80;;;3.40;;
39176;SDS011;24904;52.208;21.192;2023-09-30T12:34:24;6.70;;;2.60;;
39176;SDS011;24904;52.208;21.192;2023-09-30T12:39:29;8.10;;;2.80;;
39176;SDS011;24904;52.208;21.192;2023-09-30T12:44:35;8.00;;;2.50;;
39176;SDS011;24904;52.208;21.192;2023-09-30T12:49:40;7.80;;;2.50;;
39176;SDS011;24904;52.208;21.192;2023-09-30T12:54:45;7.00;;;2.40;;
39176;SDS011;24904;52.208;21.192;2023-09-30T12:59:51;9.10;;;3.00;;
39176;SDS011;24904;52.208;21.192;2023-09-30T13:04:56;11.80;;;3.20;;
39176;SDS011;24904;52.208;21.192;2023-09-30T13:10:01;7.40;;;2.70;;
39176;SDS011;24904;52.208;21.192;2023-09-30T13:15:07;12.40;;;3.10;;
39176;SDS011;24904;52.208;21.192;2023-09-30T13:20:15;7.20;;;3.20;;
39176;SDS011;24904;52.208;21.192;2023-09-30T13:25:21;8.40;;;3.10;;
39176;SDS011;24904;52.208;21.192;2023-09-30T13:30:26;7.90;;;2.80;;
39176;SDS011;24904;52.208;21.192;2023-09-30T13:35:31;8.80;;;2.70;;
39176;SDS011;24904;52.208;21.192;2023-09-30T13:40:38;8.00;;;2.70;;
39176;SDS011;24904;52.208;21.192;2023-09-30T13:45:43;8.50;;;3.10;;
39176;SDS011;24904;52.208;21.192;2023-09-30T13:50:48;7.20;;;3.10;;
39176;SDS011;24904;52.208;21.192;2023-09-30T13:55:53;8.00;;;2.70;;
39176;SDS011;24904;52.208;21.192;2023-09-30T14:00:58;9.30;;;2.90;;
39176;SDS011;24904;52.208;21.192;2023-09-30T14:06:03;7.30;;;3.00;;
39176;SDS011;24904;52.208;21.192;2023-09-30T14:11:14;10.50;;;3.00;;
39176;SDS011;24904;52.208;21.192;2023-09-30T14:16:19;7.30;;;2.70;;
39176;SDS011;24904;52.208;21.192;2023-09-30T14:21:24;11.20;;;3.20;;
39176;SDS011;24904;52.208;21.192;2023-09-30T14:26:29;8.00;;;2.80;;
39176;SDS011;24904;52.208;21.192;2023-09-30T14:31:34;6.30;;;2.80;;
39176;SDS011;24904;52.208;21.192;2023-09-30T14:36:39;7.80;;;2.40;;
39176;SDS011;24904;52.208;21.192;2023-09-30T14:41:44;8.70;;;2.20;;
39176;SDS011;24904;52.208;21.192;2023-09-30T14:46:50;9.30;;;2.40;;
39176;SDS011;24904;52.208;21.192;2023-09-30T14:51:54;5.80;;;2.40;;
39176;SDS011;24904;52.208;21.192;2023-09-30T14:57:00;8.60;;;3.00;;
39176;SDS011;24904;52.208;21.192;2023-09-30T15:02:05;9.30;;;2.50;;
39176;SDS011;24904;52.208;21.192;2023-09-30T15:07:12;9.10;;;3.00;;
39176;SDS011;24904;52.208;21.192;2023-09-30T15:12:17;8.70;;;2.40;;
39176;SDS011;24904;52.208;21.192;2023-09-30T15:17:22;10.00;;;2.40;;
39176;SDS011;24904;52.208;21.192;2023-09-30T15:22:27;7.70;;;2.30;;
39176;SDS011;24904;52.208;21.192;2023-09-30T15:27:34;6.30;;;2.20;;
39176;SDS011;24904;52.208;21.192;2023-09-30T15:32:40;8.60;;;2.80;;
39176;SDS011;24904;52.208;21.192;2023-09-30T15:37:45;8.70;;;2.80;;
39176;SDS011;24904;52.208;21.192;2023-09-30T15:42:51;8.80;;;3.20;;
39176;SDS011;24904;52.208;21.192;2023-09-30T15:47:56;11.80;;;3.20;;
39176;SDS011;24904;52.208;21.192;2023-09-30T15:53:01;7.00;;;2.60;;
39176;SDS011;24904;52.208;21.192;2023-09-30T15:58:06;9.40;;;2.60;;
39176;SDS011;24904;52.208;21.192;2023-09-30T16:03:11;9.00;;;3.30;;
39176;SDS011;24904;52.208;21.192;2023-09-30T16:08:16;8.40;;;2.60;;
39176;SDS011;24904;52.208;21.192;2023-09-30T16:13:21;9.80;;;2.70;;
39176;SDS011;24904;52.208;21.192;2023-09-30T16:18:26;7.70;;;3.10;;
39176;SDS011;24904;52.208;21.192;2023-09-30T16:23:31;8.40;;;3.10;;
39176;SDS011;24904;52.208;21.192;2023-09-30T16:28:37;11.70;;;3.40;;
39176;SDS011;24904;52.208;21.192;2023-09-30T16:33:42;10.30;;;2.90;;
39176;SDS011;24904;52.208;21.192;2023-09-30T16:38:47;8.90;;;2.80;;
39176;SDS011;24904;52.208;21.192;2023-09-30T16:43:52;11.60;;;2.80;;
39176;SDS011;24904;52.208;21.192;2023-09-30T16:48:57;10.50;;;3.10;;
39176;SDS011;24904;52.208;21.192;2023-09-30T16:54:02;8.70;;;2.90;;
39176;SDS011;24904;52.208;21.192;2023-09-30T16:59:07;9.30;;;3.40;;
39176;SDS011;24904;52.208;21.192;2023-09-30T17:04:12;8.40;;;2.90;;
39176;SDS011;24904;52.208;21.192;2023-09-30T17:15:15;9.00;;;3.00;;
39176;SDS011;24904;52.208;21.192;2023-09-30T17:20:20;11.60;;;3.80;;
39176;SDS011;24904;52.208;21.192;2023-09-30T17:25:26;9.70;;;3.40;;
39176;SDS011;24904;52.208;21.192;2023-09-30T17:30:34;10.00;;;3.30;;
39176;SDS011;24904;52.208;21.192;2023-09-30T17:35:39;9.90;;;4.30;;
39176;SDS011;24904;52.208;21.192;2023-09-30T17:40:44;11.50;;;4.00;;
39176;SDS011;24904;52.208;21.192;2023-09-30T17:45:50;10.20;;;3.10;;
39176;SDS011;24904;52.208;21.192;2023-09-30T17:50:55;10.80;;;3.70;;
39176;SDS011;24904;52.208;21.192;2023-09-30T17:56:00;10.00;;;2.80;;
39176;SDS011;24904;52.208;21.192;2023-09-30T18:01:05;9.70;;;3.60;;
39176;SDS011;24904;52.208;21.192;2023-09-30T18:06:10;10.00;;;4.40;;
39176;SDS011;24904;52.208;21.192;2023-09-30T18:11:15;9.30;;;3.20;;
39176;SDS011;24904;52.208;21.192;2023-09-30T18:16:20;7.80;;;3.60;;
39176;SDS011;24904;52.208;21.192;2023-09-30T18:26:54;14.20;;;4.80;;
39176;SDS011;24904;52.208;21.192;2023-09-30T18:32:00;9.80;;;3.70;;
39176;SDS011;24904;52.208;21.192;2023-09-30T18:37:05;9.10;;;3.50;;
39176;SDS011;24904;52.208;21.192;2023-09-30T18:42:11;13.50;;;4.10;;
39176;SDS011;24904;52.208;21.192;2023-09-30T18:47:16;12.10;;;4.10;;
39176;SDS011;24904;52.208;21.192;2023-09-30T18:52:21;10.40;;;3.80;;
39176;SDS011;24904;52.208;21.192;2023-09-30T18:57:26;10.60;;;4.20;;
39176;SDS011;24904;52.208;21.192;2023-09-30T19:02:31;11.00;;;4.40;;
39176;SDS011;24904;52.208;21.192;2023-09-30T19:07:36;11.10;;;4.00;;
39176;SDS011;24904;52.208;21.192;2023-09-30T19:12:41;12.10;;;3.80;;
39176;SDS011;24904;52.208;21.192;2023-09-30T19:17:46;16.00;;;4.60;;
39176;SDS011;24904;52.208;21.192;2023-09-30T19:22:51;12.30;;;4.90;;
39176;SDS011;24904;52.208;21.192;2023-09-30T19:27:57;10.70;;;3.60;;
39176;SDS011;24904;52.208;21.192;2023-09-30T19:33:02;9.90;;;3.70;;
39176;SDS011;24904;52.208;21.192;2023-09-30T19:38:07;13.00;;;4.20;;
39176;SDS011;24904;52.208;21.192;2023-09-30T19:43:13;10.10;;;3.30;;
39176;SDS011;24904;52.208;21.192;2023-09-30T19:48:18;14.30;;;3.80;;
39176;SDS011;24904;52.208;21.192;2023-09-30T19:53:23;14.00;;;4.10;;
39176;SDS011;24904;52.208;21.192;2023-09-30T19:58:28;12.80;;;4.20;;
39176;SDS011;24904;52.208;21.192;2023-09-30T20:03:33;13.30;;;3.50;;
39176;SDS011;24904;52.208;21.192;2023-09-30T20:08:38;13.10;;;3.90;;
39176;SDS011;24904;52.208;21.192;2023-09-30T20:13:43;18.10;;;4.80;;
39176;SDS011;24904;52.208;21.192;2023-09-30T20:18:49;11.60;;;3.10;;
39176;SDS011;24904;52.208;21.192;2023-09-30T20:23:54;17.90;;;5.60;;
39176;SDS011;24904;52.208;21.192;2023-09-30T20:37:08;12.50;;;3.70;;
39176;SDS011;24904;52.208;21.192;2023-09-30T20:42:13;12.70;;;3.50;;
39176;SDS011;24904;52.208;21.192;2023-09-30T20:47:19;14.80;;;3.90;;
39176;SDS011;24904;52.208;21.192;2023-09-30T20:52:25;13.40;;;3.40;;
39176;SDS011;24904;52.208;21.192;2023-09-30T20:57:30;6.50;;;3.30;;
39176;SDS011;24904;52.208;21.192;2023-09-30T21:02:35;15.90;;;4.20;;
39176;SDS011;24904;52.208;21.192;2023-09-30T21:07:40;13.00;;;4.10;;
39176;SDS011;24904;52.208;21.192;2023-09-30T21:12:45;16.70;;;4.60;;
39176;SDS011;24904;52.208;21.192;2023-09-30T21:17:50;10.90;;;3.70;;
39176;SDS011;24904;52.208;21.192;2023-09-30T21:22:55;13.10;;;4.10;;
39176;SDS011;24904;52.208;21.192;2023-09-30T21:28:01;12.00;;;3.80;;
39176;SDS011;24904;52.208;21.192;2023-09-30T21:33:06;9.60;;;3.50;;
39176;SDS011;24904;52.208;21.192;2023-09-30T21:38:11;8.50;;;3.10;;
39176;SDS011;24904;52.208;21.192;2023-09-30T21:43:16;10.10;;;3.20;;
39176;SDS011;24904;52.208;21.192;2023-09-30T21:48:21;12.40;;;3.50;;
39176;SDS011;24904;52.208;21.192;2023-09-30T21:53:27;12.40;;;3.80;;
39176;SDS011;24904;52.208;21.192;2023-09-30T21:58:33;9.60;;;3.80;;
39176;SDS011;24904;52.208;21.192;2023-09-30T22:03:38;11.80;;;3.80;;
39176;SDS011;24904;52.208;21.192;2023-09-30T22:08:44;13.50;;;3.90;;
39176;SDS011;24904;52.208;21.192;2023-09-30T22:20:33;9.00;;;4.00;;
39176;SDS011;24904;52.208;21.192;2023-09-30T22:25:38;16.00;;;3.90;;
39176;SDS011;24904;52.208;21.192;2023-09-30T22:30:43;18.80;;;3.60;;
39176;SDS011;24904;52.208;21.192;2023-09-30T22:35:48;8.90;;;3.60;;
39176;SDS011;24904;52.208;21.192;2023-09-30T22:40:54;11.40;;;3.30;;
39176;SDS011;24904;52.208;21.192;2023-09-30T22:45:59;11.80;;;3.70;;
39176;SDS011;24904;52.208;21.192;2023-09-30T22:51:08;8.90;;;3.90;;
39176;SDS011;24904;52.208;21.192;2023-09-30T22:56:16;17.60;;;4.00;;
39176;SDS011;24904;52.208;21.192;2023-09-30T23:01:23;16.20;;;4.10;;
39176;SDS011;24904;52.208;21.192;2023-09-30T23:06:28;10.70;;;4.30;;
39176;SDS011;24904;52.208;21.192;2023-09-30T23:11:34;16.50;;;4.00;;
39176;SDS011;24904;52.208;21.192;2023-09-30T23:16:39;16.20;;;4.40;;
39176;SDS011;24904;52.208;21.192;2023-09-30T23:21:45;11.50;;;4.20;;
39176;SDS011;24904;52.208;21.192;2023-09-30T23:26:51;12.70;;;4.40;;
39176;SDS011;24904;52.208;21.192;2023-09-30T23:31:57;11.50;;;4.30;;
39176;SDS011;24904;52.208;21.192;2023-09-30T23:37:03;10.70;;;4.20;;
39176;SDS011;24904;52.208;21.192;2023-09-30T23:42:09;12.90;;;4.90;;
39176;SDS011;24904;52.208;21.192;2023-09-30T23:47:15;12.50;;;4.30;;
39176;SDS011;24904;52.208;21.192;2023-09-30T23:52:20;16.90;;;5.60;;
39176;SDS011;24904;52.208;21.192;2023-09-30T23:57:25;20.40;;;5.40;;
